Time;durP1;ratioP1;P1;durP2;ratioP2;P2;SDS_P1;SDS_P2;PMS_P1;PMS_P2;Temp;Humidity;BMP_temperature;BMP_pressure;BME280_temperature;BME280_humidity;BME280_pressure;Samples;Min_cycle;Max_cycle;Signal;HPM_P1;HPM_P2
2022/06/30 00:02:18;;;;;;;14.60;9.25;;;21.90;99.20;;;;;;4982979;28;20027;-70
2022/06/30 00:04:44;;;;;;;17.13;9.38;;;21.90;99.30;;;;;;4982543;28;20354;-70
2022/06/30 00:07:10;;;;;;;11.63;9.60;;;21.90;99.20;;;;;;4981711;28;20084;-70
2022/06/30 00:09:36;;;;;;;12.50;8.60;;;21.80;99.20;;;;;;4983919;28;20027;-70
2022/06/30 00:12:02;;;;;;;13.97;8.60;;;21.70;99.20;;;;;;4986801;28;20030;-70
2022/06/30 00:14:27;;;;;;;13.05;9.95;;;21.70;99.30;;;;;;4986194;28;20023;-71
2022/06/30 00:16:53;;;;;;;12.20;8.60;;;21.70;99.70;;;;;;4986247;28;20030;-71
2022/06/30 00:19:19;;;;;;;14.03;8.40;;;21.70;99.80;;;;;;4986583;28;20058;-71
2022/06/30 00:21:44;;;;;;;12.00;9.07;;;21.70;99.80;;;;;;4988146;28;20122;-70
2022/06/30 00:24:10;;;;;;;13.27;8.17;;;21.70;99.80;;;;;;5005883;28;20037;-70
2022/06/30 00:26:36;;;;;;;13.90;9.00;;;21.70;99.90;;;;;;5000328;28;20038;-70
2022/06/30 00:29:02;;;;;;;11.70;8.63;;;21.70;99.80;;;;;;5005857;28;20026;-70
2022/06/30 00:31:27;;;;;;;15.37;9.13;;;21.60;99.90;;;;;;5004607;28;20053;-70
2022/06/30 00:33:53;;;;;;;14.10;8.77;;;21.60;99.90;;;;;;5005488;28;20340;-70
2022/06/30 00:36:19;;;;;;;12.57;9.20;;;21.60;99.90;;;;;;5006063;28;20148;-71
2022/06/30 00:38:44;;;;;;;13.37;9.20;;;21.50;99.90;;;;;;5005604;28;20034;-71
2022/06/30 00:41:10;;;;;;;11.03;9.13;;;21.50;99.90;;;;;;5004645;28;20276;-71
2022/06/30 00:43:45;;;;;;;13.00;9.47;;;21.50;99.90;;;;;;5002754;28;20026;-71
2022/06/30 00:46:12;;;;;;;12.60;9.48;;;21.50;99.90;;;;;;5005080;28;20030;-71
2022/06/30 00:48:38;;;;;;;11.88;8.93;;;21.40;99.90;;;;;;5004838;28;20026;-71
2022/06/30 00:51:05;;;;;;;13.70;9.38;;;21.40;99.90;;;;;;4988098;28;20046;-71
2022/06/30 00:53:32;;;;;;;;;;;21.40;99.90;;;;;;5003551;28;20088;-71
2022/06/30 00:55:58;;;;;;;12.70;9.18;;;21.40;99.90;;;;;;4988020;28;19909;-71
2022/06/30 00:58:24;;;;;;;10.90;8.27;;;21.40;99.90;;;;;;4968955;28;20114;-71
2022/06/30 01:00:50;;;;;;;14.43;9.53;;;21.40;99.90;;;;;;4984666;28;20274;-71
2022/06/30 01:03:16;;;;;;;14.17;9.10;;;21.40;99.90;;;;;;4984332;28;20085;-71
2022/06/30 01:05:42;;;;;;;10.98;8.52;;;21.40;99.90;;;;;;4984527;28;20225;-76
2022/06/30 01:08:08;;;;;;;12.37;8.97;;;21.40;99.90;;;;;;4984068;28;20030;-76
2022/06/30 01:13:31;;;;;;;12.90;9.25;;;21.30;99.90;;;;;;4962147;28;20396;-76
2022/06/30 01:15:57;;;;;;;12.87;9.03;;;21.30;99.90;;;;;;4967975;28;20034;-76
2022/06/30 01:18:22;;;;;;;12.60;9.20;;;21.30;99.90;;;;;;4984862;28;20415;-76
2022/06/30 01:20:48;;;;;;;11.40;9.17;;;21.30;99.90;;;;;;4994023;28;20026;-77
2022/06/30 01:23:14;;;;;;;14.83;8.97;;;21.30;99.90;;;;;;5002919;28;20038;-77
2022/06/30 01:25:40;;;;;;;14.53;9.77;;;21.30;99.90;;;;;;4984131;28;20035;-78
2022/06/30 01:28:05;;;;;;;11.17;8.73;;;21.30;99.90;;;;;;4945109;28;20098;-78
2022/06/30 01:30:31;;;;;;;14.13;9.23;;;21.30;99.90;;;;;;4951350;28;20085;-77
2022/06/30 01:32:57;;;;;;;12.50;9.27;;;21.20;99.90;;;;;;4971119;28;20265;-77
2022/06/30 01:35:23;;;;;;;13.47;9.73;;;21.20;99.90;;;;;;5004007;28;20029;-76
2022/06/30 01:37:57;;;;;;;15.77;9.90;;;21.20;99.90;;;;;;5002778;28;20368;-77
2022/06/30 01:40:24;;;;;;;13.40;9.88;;;21.20;99.90;;;;;;4969954;28;20030;-77
2022/06/30 01:42:50;;;;;;;10.93;8.85;;;21.20;99.90;;;;;;4961963;28;20106;-77
2022/06/30 01:45:16;;;;;;;12.25;9.93;;;21.20;99.90;;;;;;4960394;29;20078;-76
2022/06/30 01:47:42;;;;;;;10.40;8.82;;;21.10;99.90;;;;;;4953746;28;20371;-76
2022/06/30 01:50:18;;;;;;;15.20;9.73;;;21.10;99.90;;;;;;4957333;28;20051;-77
2022/06/30 01:52:44;;;;;;;13.57;9.95;;;21.10;99.90;;;;;;4934931;29;20131;-77
2022/06/30 01:55:10;;;;;;;11.37;10.10;;;21.10;99.90;;;;;;4977381;28;20030;-75
2022/06/30 01:57:36;;;;;;;11.90;10.20;;;21.00;99.90;;;;;;4971622;28;20214;-77
2022/06/30 02:00:04;;;;;;;15.25;10.25;;;21.00;99.90;;;;;;4963727;29;20027;-77
2022/06/30 02:02:30;;;;;;;13.43;9.98;;;21.00;99.90;;;;;;4947927;29;20023;-77
2022/06/30 02:04:55;;;;;;;14.87;10.30;;;20.90;99.90;;;;;;4963296;29;20026;-77
2022/06/30 02:07:22;;;;;;;14.23;9.82;;;21.00;99.90;;;;;;4947451;29;20051;-77
2022/06/30 02:09:50;;;;;;;13.32;9.85;;;20.90;99.90;;;;;;4947607;29;20314;-77
2022/06/30 02:15:06;;;;;;;12.43;9.25;;;20.80;99.90;;;;;;4950449;29;20030;-76
2022/06/30 02:17:32;;;;;;;12.13;9.35;;;20.90;99.90;;;;;;4963348;29;20318;-77
2022/06/30 02:19:57;;;;;;;15.27;9.90;;;20.80;99.90;;;;;;4964540;28;20098;-76
2022/06/30 02:22:23;;;;;;;12.47;9.03;;;20.80;99.90;;;;;;4947492;29;20090;-77
2022/06/30 02:24:49;;;;;;;14.07;9.93;;;20.80;99.90;;;;;;4958219;28;20030;-77
2022/06/30 02:27:15;;;;;;;16.10;10.60;;;20.80;99.90;;;;;;4972254;28;20206;-77
2022/06/30 02:29:40;;;;;;;12.47;9.87;;;20.80;99.90;;;;;;4985968;28;20321;-77
2022/06/30 02:32:07;;;;;;;13.37;10.67;;;20.70;99.90;;;;;;5002576;28;20033;-77
2022/06/30 02:34:33;;;;;;;12.77;10.27;;;20.70;99.90;;;;;;5000532;28;20058;-77
2022/06/30 02:36:58;;;;;;;15.70;10.50;;;20.70;99.90;;;;;;5001510;28;20046;-77
2022/06/30 02:39:24;;;;;;;14.27;10.33;;;20.70;99.90;;;;;;5002717;28;20226;-77
2022/06/30 02:41:52;;;;;;;14.80;9.80;;;20.70;99.90;;;;;;4985665;28;20046;-77
2022/06/30 02:44:17;;;;;;;15.82;10.50;;;20.70;99.90;;;;;;5002601;28;20018;-78
2022/06/30 02:46:43;;;;;;;13.40;10.10;;;20.60;99.90;;;;;;5003046;28;20030;-77
2022/06/30 02:49:09;;;;;;;13.43;9.90;;;20.60;99.90;;;;;;5001653;28;20026;-76
2022/06/30 02:51:35;;;;;;;14.37;10.07;;;20.60;99.90;;;;;;5002573;28;20038;-77
2022/06/30 02:54:00;;;;;;;13.47;9.30;;;20.60;99.90;;;;;;5002365;28;20032;-76
2022/06/30 02:56:26;;;;;;;15.50;9.70;;;20.60;99.90;;;;;;5001584;28;20061;-76
2022/06/30 02:58:52;;;;;;;13.10;9.07;;;20.60;99.90;;;;;;5000518;28;20026;-76
2022/06/30 03:01:17;;;;;;;10.47;8.90;;;20.50;99.90;;;;;;4969348;28;20045;-76
2022/06/30 03:03:43;;;;;;;13.37;9.47;;;20.50;99.90;;;;;;5001302;28;20033;-77
2022/06/30 03:06:09;;;;;;;12.07;9.60;;;20.50;99.90;;;;;;5001360;28;20109;-77
2022/06/30 03:08:35;;;;;;;12.00;9.70;;;20.50;99.90;;;;;;4985260;28;20038;-76
2022/06/30 03:11:00;;;;;;;13.70;10.50;;;20.50;99.90;;;;;;5001411;28;20030;-78
2022/06/30 03:13:26;;;;;;;13.70;9.70;;;20.50;99.90;;;;;;5001345;28;20034;-77
2022/06/30 03:15:52;;;;;;;11.67;9.77;;;20.50;99.90;;;;;;5001478;28;20081;-76
2022/06/30 03:18:18;;;;;;;11.70;9.85;;;20.50;99.90;;;;;;4984332;28;20356;-77
2022/06/30 03:20:43;;;;;;;12.80;10.50;;;20.40;99.90;;;;;;4985106;28;20030;-77
2022/06/30 03:23:09;;;;;;;14.20;10.47;;;20.40;99.90;;;;;;5002204;28;20228;-77
2022/06/30 03:25:35;;;;;;;13.60;10.45;;;20.40;99.90;;;;;;5001238;28;20030;-77
2022/06/30 03:28:02;;;;;;;13.67;10.37;;;20.40;99.90;;;;;;5001304;28;20034;-77
2022/06/30 03:30:28;;;;;;;;;;;20.30;99.90;;;;;;4985723;28;20325;-76
2022/06/30 03:32:53;;;;;;;16.98;11.68;;;20.30;99.90;;;;;;5000965;28;19905;-75
2022/06/30 03:35:19;;;;;;;14.50;10.10;;;20.30;99.90;;;;;;5002069;28;20237;-76
2022/06/30 03:37:46;;;;;;;13.60;10.53;;;20.30;99.90;;;;;;4983787;28;20048;-77
2022/06/30 03:40:12;;;;;;;12.98;10.30;;;20.30;99.90;;;;;;4984570;28;20114;-76
2022/06/30 03:42:38;;;;;;;16.25;10.70;;;20.30;99.90;;;;;;5001125;28;20355;-76
2022/06/30 03:45:04;;;;;;;12.23;10.73;;;20.30;99.90;;;;;;5003774;28;20022;-77
2022/06/30 03:47:30;;;;;;;;;;;20.30;99.90;;;;;;5005382;28;20333;-77
2022/06/30 03:49:56;;;;;;;15.50;11.00;;;20.30;99.90;;;;;;5005736;28;19941;-77
2022/06/30 03:52:21;;;;;;;14.40;10.97;;;20.30;99.90;;;;;;5004800;28;20090;-76
2022/06/30 03:54:47;;;;;;;14.90;10.03;;;20.30;99.90;;;;;;5005602;28;20233;-76
2022/06/30 03:57:13;;;;;;;13.20;10.30;;;20.30;99.90;;;;;;5003686;28;20581;-77
2022/06/30 03:59:39;;;;;;;12.47;9.67;;;20.30;99.90;;;;;;4988524;28;20222;-77
2022/06/30 04:02:06;;;;;;;15.77;10.70;;;20.30;99.90;;;;;;5004694;28;20225;-77
2022/06/30 04:04:32;;;;;;;;;;;20.40;99.90;;;;;;4961768;28;20030;-77
2022/06/30 04:06:58;;;;;;;14.05;10.18;;;20.30;99.90;;;;;;5000232;28;19928;-77
2022/06/30 04:09:24;;;;;;;16.17;10.02;;;20.40;99.90;;;;;;4983407;28;20026;-77
2022/06/30 04:11:50;;;;;;;13.43;10.70;;;20.40;99.90;;;;;;4973788;28;20146;-77
2022/06/30 04:14:15;;;;;;;11.70;9.93;;;20.40;99.90;;;;;;4984352;28;20026;-77
2022/06/30 04:16:41;;;;;;;14.73;10.60;;;20.40;99.90;;;;;;4997634;28;20094;-77
2022/06/30 04:19:07;;;;;;;12.97;10.93;;;20.30;99.90;;;;;;4975878;28;20137;-76
2022/06/30 04:21:33;;;;;;;12.37;10.40;;;20.40;99.90;;;;;;4995140;28;20098;-73
2022/06/30 04:23:58;;;;;;;15.30;11.53;;;20.40;99.90;;;;;;4999266;28;20225;-73
2022/06/30 04:26:24;;;;;;;12.13;9.83;;;20.30;99.90;;;;;;4967327;28;20404;-74
2022/06/30 04:28:50;;;;;;;15.07;10.40;;;20.40;99.90;;;;;;4987748;28;20057;-74
2022/06/30 04:34:00;;;;;;;15.90;12.35;;;20.30;99.90;;;;;;4986468;28;20041;-74
2022/06/30 04:36:25;;;;;;;19.57;10.87;;;20.40;99.90;;;;;;4975957;28;20039;-74
2022/06/30 04:38:51;;;;;;;12.00;10.10;;;20.40;99.90;;;;;;4977375;28;20034;-75
2022/06/30 04:41:26;;;;;;;16.53;10.83;;;20.40;99.90;;;;;;4974747;28;20030;-75
2022/06/30 04:43:55;;;;;;;13.80;10.32;;;20.40;99.90;;;;;;4969028;28;20031;-75
2022/06/30 04:46:21;;;;;;;14.73;10.32;;;20.40;99.90;;;;;;4965068;29;20029;-74
2022/06/30 04:48:47;;;;;;;15.73;10.55;;;20.40;99.90;;;;;;4964851;29;20031;-75
2022/06/30 04:51:13;;;;;;;14.43;11.47;;;20.40;99.90;;;;;;4964986;29;20261;-73
2022/06/30 04:53:40;;;;;;;12.90;10.87;;;20.40;99.90;;;;;;4982544;28;20290;-73
2022/06/30 04:56:06;;;;;;;16.67;10.90;;;20.40;99.90;;;;;;4975392;28;20015;-71
2022/06/30 04:58:32;;;;;;;;;;;20.40;99.90;;;;;;4999067;28;20023;-71
2022/06/30 05:00:58;;;;;;;13.63;11.00;;;20.50;99.90;;;;;;4988652;28;19932;-71
2022/06/30 05:03:24;;;;;;;12.37;10.43;;;20.50;99.90;;;;;;4976346;28;20027;-71
2022/06/30 05:05:49;;;;;;;13.90;10.97;;;20.50;99.90;;;;;;4970144;28;20357;-71
2022/06/30 05:08:15;;;;;;;14.75;11.43;;;20.50;99.90;;;;;;4969792;28;20043;-71
2022/06/30 05:10:41;;;;;;;13.27;10.80;;;20.60;99.90;;;;;;4965699;29;20027;-71
2022/06/30 05:13:07;;;;;;;13.03;10.90;;;20.60;99.90;;;;;;4962819;29;20031;-72
2022/06/30 05:15:34;;;;;;;12.63;10.65;;;20.60;99.90;;;;;;4994073;28;20318;-72
2022/06/30 05:18:00;;;;;;;;;;;20.70;99.90;;;;;;4992441;28;20114;-72
2022/06/30 05:20:25;;;;;;;17.30;11.55;;;20.70;99.90;;;;;;5002130;28;19912;-72
2022/06/30 05:22:51;;;;;;;13.00;10.70;;;20.70;99.90;;;;;;4995114;28;20050;-72
2022/06/30 05:28:01;;;;;;;18.05;11.27;;;20.70;99.90;;;;;;4984628;28;20037;-73
2022/06/30 05:30:27;;;;;;;17.23;12.63;;;20.80;99.90;;;;;;4967558;28;20229;-72
2022/06/30 05:32:53;;;;;;;12.13;10.10;;;20.80;99.90;;;;;;4984048;28;20138;-72
2022/06/30 05:35:19;;;;;;;16.83;11.87;;;20.80;99.90;;;;;;4984528;28;20026;-73
2022/06/30 05:37:45;;;;;;;16.73;11.53;;;20.80;99.90;;;;;;4991739;28;20101;-73
2022/06/30 05:40:11;;;;;;;15.25;11.65;;;20.80;99.90;;;;;;5003755;28;20042;-70
2022/06/30 05:42:37;;;;;;;16.65;11.43;;;20.80;99.90;;;;;;5002219;28;20018;-70
2022/06/30 05:45:04;;;;;;;16.77;12.87;;;20.80;99.90;;;;;;5003443;28;20320;-70
2022/06/30 05:47:29;;;;;;;16.58;12.32;;;20.90;99.90;;;;;;5002873;28;20030;-70
2022/06/30 05:49:55;;;;;;;16.33;11.90;;;20.90;99.90;;;;;;5003743;28;20028;-71
2022/06/30 05:52:21;;;;;;;14.43;10.93;;;21.00;99.90;;;;;;5002789;28;20038;-70
2022/06/30 05:54:47;;;;;;;17.03;12.07;;;21.00;99.90;;;;;;5002777;28;20029;-70
2022/06/30 05:57:13;;;;;;;15.03;11.93;;;21.00;99.90;;;;;;5003079;28;20269;-70
2022/06/30 05:59:38;;;;;;;15.27;11.50;;;21.10;99.90;;;;;;5003480;28;20343;-70
2022/06/30 06:02:04;;;;;;;12.40;10.90;;;21.10;99.90;;;;;;5003747;28;20014;-70
2022/06/30 06:04:30;;;;;;;15.50;10.75;;;21.20;99.90;;;;;;5001795;28;20033;-70
2022/06/30 06:06:56;;;;;;;15.53;11.20;;;21.20;99.90;;;;;;5002720;28;20038;-70
2022/06/30 06:09:21;;;;;;;16.50;13.17;;;21.30;99.90;;;;;;5003246;28;20033;-69
2022/06/30 06:11:47;;;;;;;15.13;12.63;;;21.30;99.90;;;;;;5003291;28;20030;-70
2022/06/30 06:14:13;;;;;;;14.43;10.80;;;21.40;99.90;;;;;;5002858;28;20272;-70
2022/06/30 06:16:39;;;;;;;14.97;12.53;;;21.40;99.90;;;;;;5003105;28;20052;-70
2022/06/30 06:19:04;;;;;;;15.30;11.60;;;21.50;99.90;;;;;;5002841;28;20041;-70
2022/06/30 06:21:32;;;;;;;15.43;11.80;;;21.50;99.90;;;;;;4991762;28;20034;-70
2022/06/30 06:23:57;;;;;;;15.20;11.25;;;21.50;99.90;;;;;;4983275;28;20034;-70
2022/06/30 06:26:23;;;;;;;15.70;12.57;;;21.60;99.90;;;;;;4983462;28;20057;-70
2022/06/30 06:29:07;;;;;;;16.23;13.07;;;21.60;99.90;;;;;;4983536;28;20626;-70
2022/06/30 06:31:34;;;;;;;16.80;12.32;;;21.60;99.90;;;;;;4983791;28;20022;-70
2022/06/30 06:34:01;;;;;;;20.95;13.38;;;21.70;99.90;;;;;;4994470;28;20344;-70
2022/06/30 06:36:27;;;;;;;18.92;12.70;;;21.70;99.90;;;;;;5002823;28;20030;-70
2022/06/30 06:38:53;;;;;;;17.88;13.45;;;21.80;99.90;;;;;;5001345;28;20050;-70
2022/06/30 06:41:22;;;;;;;15.53;12.07;;;21.80;99.90;;;;;;5002770;28;20022;-70
2022/06/30 06:43:49;;;;;;;17.02;11.77;;;21.80;99.90;;;;;;5002488;28;20265;-70
2022/06/30 06:46:15;;;;;;;15.38;11.90;;;21.80;99.90;;;;;;5003025;28;20098;-70
2022/06/30 06:48:41;;;;;;;15.50;12.20;;;21.90;99.90;;;;;;5002208;28;20328;-70
2022/06/30 06:51:07;;;;;;;15.55;11.77;;;21.90;99.90;;;;;;5002759;28;20033;-70
2022/06/30 06:53:32;;;;;;;13.40;10.50;;;22.00;99.90;;;;;;4991971;28;20026;-70
2022/06/30 06:55:58;;;;;;;17.80;12.03;;;22.00;99.90;;;;;;4982150;28;20223;-70
2022/06/30 06:58:24;;;;;;;14.65;11.02;;;22.10;99.90;;;;;;4982994;28;20034;-69
2022/06/30 07:00:52;;;;;;;14.23;11.27;;;22.20;99.90;;;;;;5002216;28;20041;-70
2022/06/30 07:03:18;;;;;;;14.80;11.48;;;22.20;99.90;;;;;;4976033;28;20350;-70
2022/06/30 07:05:44;;;;;;;15.33;11.83;;;22.20;99.90;;;;;;4979010;28;20022;-70
2022/06/30 07:08:10;;;;;;;15.87;12.40;;;22.30;99.90;;;;;;4983035;28;20091;-70
2022/06/30 07:10:35;;;;;;;14.97;13.07;;;22.30;99.90;;;;;;4982984;28;20034;-69
2022/06/30 07:13:01;;;;;;;17.13;12.00;;;22.40;99.90;;;;;;4982781;28;20274;-69
2022/06/30 07:15:27;;;;;;;18.60;11.47;;;22.50;99.90;;;;;;4982889;28;20320;-70
2022/06/30 07:17:53;;;;;;;14.47;9.93;;;22.50;99.90;;;;;;4974353;28;20046;-69
2022/06/30 07:20:19;;;;;;;15.50;11.20;;;22.50;99.90;;;;;;5005966;28;20190;-69
2022/06/30 07:22:44;;;;;;;15.43;10.90;;;22.60;99.90;;;;;;5006259;28;20284;-70
2022/06/30 07:25:10;;;;;;;15.43;11.10;;;22.70;99.90;;;;;;4997709;28;20027;-70
2022/06/30 07:27:36;;;;;;;13.43;10.10;;;22.70;99.90;;;;;;4986925;28;20027;-72
2022/06/30 07:30:02;;;;;;;13.20;10.80;;;22.80;99.90;;;;;;4987059;28;20019;-72
2022/06/30 07:32:28;;;;;;;15.55;10.48;;;22.90;99.90;;;;;;4987177;28;20315;-72
2022/06/30 07:34:54;;;;;;;13.63;9.83;;;22.90;99.90;;;;;;4986405;28;20028;-72
2022/06/30 07:37:19;;;;;;;13.57;9.93;;;23.00;99.90;;;;;;4986673;28;20046;-72
2022/06/30 07:39:45;;;;;;;14.37;11.03;;;23.10;99.90;;;;;;5000429;28;20032;-72
2022/06/30 07:42:11;;;;;;;12.87;10.20;;;23.10;99.20;;;;;;5006396;28;20033;-72
2022/06/30 07:44:37;;;;;;;14.23;9.53;;;23.20;99.50;;;;;;5005113;28;20292;-72
2022/06/30 07:47:03;;;;;;;12.25;8.70;;;23.20;98.90;;;;;;5005177;28;20030;-72
2022/06/30 07:49:28;;;;;;;12.63;9.27;;;23.30;98.60;;;;;;5006149;28;20273;-72
2022/06/30 07:51:54;;;;;;;10.93;9.43;;;23.30;98.40;;;;;;5004956;28;20034;-73
2022/06/30 07:54:20;;;;;;;10.33;9.13;;;23.30;98.80;;;;;;5005438;28;20038;-72
2022/06/30 07:56:46;;;;;;;12.73;8.70;;;23.30;99.20;;;;;;5006310;28;20320;-72
2022/06/30 07:59:13;;;;;;;11.05;8.77;;;23.40;98.50;;;;;;5005908;28;20577;-72
2022/06/30 08:01:39;;;;;;;9.50;7.95;;;23.50;98.50;;;;;;5005200;28;20317;-72
2022/06/30 08:04:04;;;;;;;12.95;10.07;;;23.50;97.90;;;;;;5005630;28;20052;-72
2022/06/30 08:06:30;;;;;;;14.10;9.55;;;23.60;98.00;;;;;;5005773;28;20038;-72
2022/06/30 08:08:56;;;;;;;11.50;9.30;;;23.70;96.70;;;;;;5004669;28;20038;-72
2022/06/30 08:11:22;;;;;;;13.85;9.32;;;23.70;96.60;;;;;;5004656;28;20076;-72
2022/06/30 08:13:48;;;;;;;;;;;23.80;95.80;;;;;;5005652;28;20037;-72
2022/06/30 08:16:15;;;;;;;12.02;8.60;;;23.80;96.40;;;;;;5005510;28;19906;-72
2022/06/30 08:18:42;;;;;;;10.55;9.10;;;23.90;96.40;;;;;;5005382;28;20026;-72
2022/06/30 08:21:09;;;;;;;11.77;8.95;;;23.90;96.70;;;;;;5005486;28;20050;-72
2022/06/30 08:23:35;;;;;;;14.38;10.32;;;24.00;96.30;;;;;;5004270;28;20233;-72
2022/06/30 08:26:01;;;;;;;;;;;24.00;96.60;;;;;;4986460;28;20018;-72
2022/06/30 08:28:27;;;;;;;12.57;9.02;;;24.00;96.90;;;;;;4968741;28;19961;-72
2022/06/30 08:30:53;;;;;;;17.13;12.27;;;24.00;95.70;;;;;;4997747;28;20056;-72
2022/06/30 08:33:18;;;;;;;11.70;9.70;;;24.10;95.10;;;;;;5004941;28;20034;-72
2022/06/30 08:35:44;;;;;;;12.43;9.40;;;24.20;95.10;;;;;;5005168;28;20038;-72
2022/06/30 08:38:10;;;;;;;11.63;8.73;;;24.30;94.70;;;;;;5004105;28;20288;-72
2022/06/30 08:43:23;;;;;;;11.07;9.00;;;24.40;94.90;;;;;;5003895;28;20068;-72
2022/06/30 08:45:48;;;;;;;10.13;8.48;;;24.40;95.00;;;;;;5003871;28;20022;-72
2022/06/30 08:48:14;;;;;;;12.00;9.43;;;24.50;95.00;;;;;;4987717;28;20093;-74
2022/06/30 08:50:42;;;;;;;12.70;9.20;;;24.60;93.90;;;;;;5004991;28;20278;-74
2022/06/30 08:53:08;;;;;;;12.38;9.30;;;24.70;92.80;;;;;;5003506;28;20089;-72
2022/06/30 08:55:33;;;;;;;11.23;8.87;;;24.70;92.40;;;;;;4971294;28;20332;-72
2022/06/30 08:58:04;;;;;;;13.47;9.73;;;24.80;93.00;;;;;;4986463;28;20262;-72
2022/06/30 09:00:30;;;;;;;12.52;9.90;;;24.80;93.60;;;;;;4985436;28;20281;-72
2022/06/30 09:02:56;;;;;;;10.35;8.55;;;24.80;93.20;;;;;;4989851;28;20217;-72
2022/06/30 09:05:22;;;;;;;10.13;8.02;;;24.70;93.30;;;;;;4972456;28;20318;-72
2022/06/30 09:07:48;;;;;;;9.85;7.95;;;24.70;94.10;;;;;;4975056;28;20019;-72
2022/06/30 09:10:14;;;;;;;10.80;7.65;;;24.70;93.70;;;;;;4974529;28;20342;-72
2022/06/30 09:12:41;;;;;;;10.23;8.27;;;24.60;93.40;;;;;;4973458;28;20053;-72
2022/06/30 09:15:07;;;;;;;13.13;7.97;;;24.60;92.60;;;;;;4972499;28;20315;-72
2022/06/30 09:17:33;;;;;;;11.07;6.72;;;24.60;90.40;;;;;;4973805;28;20030;-72
2022/06/30 09:20:10;;;;;;;10.82;7.75;;;24.60;90.00;;;;;;4958457;28;20030;-72
2022/06/30 09:22:37;;;;;;;11.20;7.63;;;24.60;90.70;;;;;;4958787;28;20042;-72
2022/06/30 09:25:08;;;;;;;8.10;7.30;;;24.60;91.60;;;;;;4984726;28;20078;-72
2022/06/30 09:27:35;;;;;;;7.65;6.95;;;24.60;91.80;;;;;;4984305;28;20027;-72
2022/06/30 09:30:10;;;;;;;11.15;7.35;;;24.60;91.40;;;;;;4984712;28;20056;-72
2022/06/30 09:33:05;;;;;;;9.88;7.35;;;24.70;91.90;;;;;;4984850;28;20031;-72
2022/06/30 09:35:31;;;;;;;11.57;7.82;;;24.70;92.30;;;;;;4995245;28;20050;-72
2022/06/30 09:38:06;;;;;;;8.55;7.72;;;24.70;91.20;;;;;;5002672;28;20100;-72
2022/06/30 09:41:00;;;;;;;10.93;8.68;;;24.80;90.50;;;;;;5002530;28;20025;-72
2022/06/30 09:43:36;;;;;;;11.75;8.88;;;24.80;90.60;;;;;;5003701;28;20061;-72
2022/06/30 09:46:05;;;;;;;11.23;7.68;;;24.80;91.60;;;;;;4969821;28;20083;-72
2022/06/30 09:48:32;;;;;;;9.68;7.57;;;24.80;91.60;;;;;;5003799;28;20039;-72
2022/06/30 09:50:59;;;;;;;11.88;7.90;;;24.80;90.50;;;;;;4985327;28;20018;-74
2022/06/30 09:53:25;;;;;;;12.27;7.00;;;24.90;90.90;;;;;;5003381;28;20034;-72
2022/06/30 09:55:50;;;;;;;8.97;6.97;;;25.00;90.10;;;;;;5003766;28;20022;-73
2022/06/30 09:58:26;;;;;;;7.88;6.82;;;25.10;90.70;;;;;;5002195;28;20284;-73
2022/06/30 10:00:52;;;;;;;7.15;6.25;;;25.10;91.20;;;;;;5003544;28;20018;-73
2022/06/30 10:03:19;;;;;;;8.02;6.68;;;25.10;90.70;;;;;;5000795;28;20036;-73
2022/06/30 10:05:49;;;;;;;8.25;6.80;;;25.30;90.40;;;;;;5003422;28;20045;-72
2022/06/30 10:08:16;;;;;;;13.35;6.45;;;25.50;87.70;;;;;;5002391;28;20046;-73
2022/06/30 10:10:42;;;;;;;8.93;6.55;;;25.70;86.00;;;;;;4986352;28;20030;-73
2022/06/30 10:13:17;;;;;;;10.02;7.28;;;25.80;85.70;;;;;;5002100;28;20026;-73
2022/06/30 10:15:52;;;;;;;10.27;7.80;;;26.00;83.20;;;;;;5001776;28;20026;-73
2022/06/30 10:18:18;;;;;;;10.52;6.97;;;26.10;83.00;;;;;;4982823;28;20018;-72
2022/06/30 10:20:45;;;;;;;10.57;6.45;;;26.20;80.70;;;;;;4998821;28;20030;-75
2022/06/30 10:23:13;;;;;;;9.80;6.18;;;26.20;80.20;;;;;;5002832;28;20025;-75
2022/06/30 10:25:39;;;;;;;12.35;6.60;;;26.20;79.20;;;;;;5000743;28;20033;-75
2022/06/30 10:28:04;;;;;;;8.88;5.63;;;26.20;79.40;;;;;;4985813;28;20034;-75
2022/06/30 10:30:53;;;;;;;9.13;6.30;;;26.20;77.60;;;;;;5001501;28;20061;-75
2022/06/30 10:33:43;;;;;;;8.40;5.30;;;26.20;78.70;;;;;;5006165;28;20134;-75
2022/06/30 10:36:13;;;;;;;6.10;5.43;;;26.30;78.20;;;;;;5000772;28;20023;-75
2022/06/30 10:39:04;;;;;;;9.50;6.40;;;26.40;80.70;;;;;;4985752;28;20026;-75
2022/06/30 10:41:30;;;;;;;6.40;5.57;;;26.50;86.50;;;;;;4971162;28;20240;-75
2022/06/30 10:44:14;;;;;;;9.65;5.53;;;26.60;83.00;;;;;;5002246;28;20049;-74
2022/06/30 10:47:02;;;;;;;8.90;6.07;;;26.70;77.00;;;;;;4986111;28;20034;-75
2022/06/30 10:49:28;;;;;;;8.77;5.90;;;26.70;81.30;;;;;;4981983;28;20026;-74
2022/06/30 10:51:57;;;;;;;11.77;6.43;;;26.70;83.40;;;;;;4984299;28;20037;-74
2022/06/30 10:54:33;;;;;;;8.45;5.80;;;26.60;76.30;;;;;;5000497;28;20041;-74
2022/06/30 10:57:00;;;;;;;9.82;5.72;;;26.50;76.30;;;;;;4999836;28;20316;-74
2022/06/30 10:59:30;;;;;;;8.65;5.45;;;26.50;80.10;;;;;;4962635;29;20300;-74
2022/06/30 11:02:08;;;;;;;8.40;5.57;;;26.40;77.10;;;;;;4962718;29;20027;-74
2022/06/30 11:04:40;;;;;;;7.35;6.25;;;26.50;78.20;;;;;;4963545;28;20238;-74
2022/06/30 11:07:12;;;;;;;8.80;5.70;;;26.60;79.60;;;;;;4947130;29;20094;-75
2022/06/30 11:09:44;;;;;;;8.00;5.25;;;26.70;77.90;;;;;;4963493;28;20027;-75
2022/06/30 11:12:32;;;;;;;9.38;6.13;;;26.70;77.90;;;;;;4963696;28;20094;-74
2022/06/30 11:14:58;;;;;;;;;;;26.80;80.80;;;;;;4963041;29;20031;-74
2022/06/30 11:17:26;;;;;;;9.00;5.97;;;26.90;81.70;;;;;;4963698;28;20216;-74
2022/06/30 11:20:05;;;;;;;7.45;5.80;;;27.00;82.20;;;;;;4978628;28;20023;-74
2022/06/30 11:22:31;;;;;;;7.38;5.47;;;27.10;81.90;;;;;;4966360;28;20037;-75
2022/06/30 11:25:03;;;;;;;10.60;5.80;;;27.10;81.60;;;;;;4981731;28;20042;-74
2022/06/30 11:27:32;;;;;;;8.20;5.25;;;27.20;75.30;;;;;;4983001;28;20026;-74
2022/06/30 11:30:09;;;;;;;9.43;5.50;;;27.30;78.50;;;;;;4966277;28;20063;-75
2022/06/30 11:32:35;;;;;;;11.70;5.72;;;27.40;77.30;;;;;;4967008;28;20384;-76
2022/06/30 11:35:00;;;;;;;6.00;5.40;;;27.40;77.80;;;;;;4981312;28;20035;-74
2022/06/30 11:37:30;;;;;;;7.95;5.88;;;27.40;74.80;;;;;;4981624;28;20086;-75
2022/06/30 11:40:01;;;;;;;8.32;5.40;;;27.30;73.90;;;;;;4980750;28;20027;-74
2022/06/30 11:42:27;;;;;;;9.63;5.65;;;27.30;73.90;;;;;;4982652;28;20027;-75
2022/06/30 11:44:53;;;;;;;7.35;5.28;;;27.30;74.40;;;;;;4981217;28;20073;-75
2022/06/30 11:47:20;;;;;;;11.52;5.82;;;27.40;76.50;;;;;;4982712;28;20041;-74
2022/06/30 11:49:50;;;;;;;8.00;5.43;;;27.50;76.80;;;;;;4981570;28;20273;-75
2022/06/30 11:52:29;;;;;;;9.25;5.40;;;27.70;78.70;;;;;;4981619;28;20057;-74
2022/06/30 11:55:13;;;;;;;11.77;6.03;;;27.70;74.60;;;;;;4982197;28;20042;-74
2022/06/30 11:57:42;;;;;;;7.10;5.45;;;27.70;73.50;;;;;;4981581;28;20226;-75
2022/06/30 12:00:13;;;;;;;11.00;6.60;;;27.70;75.70;;;;;;4981409;28;20014;-74
2022/06/30 12:02:40;;;;;;;8.52;5.65;;;27.70;77.20;;;;;;4982433;28;20015;-75
2022/06/30 12:05:09;;;;;;;8.75;5.55;;;27.80;77.80;;;;;;4982444;28;20041;-74
2022/06/30 12:07:35;;;;;;;7.78;5.03;;;27.90;72.90;;;;;;4984958;28;20042;-74
2022/06/30 12:10:01;;;;;;;10.48;6.30;;;27.90;71.70;;;;;;4979872;28;20166;-74
2022/06/30 12:12:29;;;;;;;6.88;5.07;;;27.90;73.10;;;;;;5003079;28;20033;-74
2022/06/30 12:14:59;;;;;;;9.85;5.72;;;27.90;73.20;;;;;;5005060;28;20075;-74
2022/06/30 12:17:30;;;;;;;7.30;5.18;;;27.90;77.50;;;;;;4988788;28;20035;-74
2022/06/30 12:19:56;;;;;;;7.65;5.25;;;27.90;79.50;;;;;;4974302;28;20388;-74
2022/06/30 12:22:21;;;;;;;8.70;5.63;;;27.80;71.80;;;;;;4977381;28;20030;-75
2022/06/30 12:24:48;;;;;;;8.77;5.05;;;27.80;74.80;;;;;;4957458;28;20081;-74
2022/06/30 12:27:36;;;;;;;8.20;5.45;;;27.90;69.80;;;;;;4974741;28;20314;-75
2022/06/30 12:30:08;;;;;;;8.13;5.97;;;28.00;73.10;;;;;;4974539;28;20027;-74
2022/06/30 12:32:34;;;;;;;8.32;6.05;;;28.10;75.50;;;;;;4972924;28;20038;-74
2022/06/30 12:35:03;;;;;;;6.30;5.30;;;28.20;76.90;;;;;;4975372;28;20030;-74
2022/06/30 12:37:41;;;;;;;7.30;5.53;;;28.40;76.10;;;;;;4974866;28;20069;-74
2022/06/30 12:40:12;;;;;;;9.38;5.00;;;28.60;75.70;;;;;;4991124;28;20023;-75
2022/06/30 12:42:46;;;;;;;5.88;5.03;;;28.90;67.00;;;;;;4975916;28;20476;-75
2022/06/30 12:45:55;;;;;;;9.98;6.88;;;29.10;67.80;;;;;;4988300;28;20026;-75
2022/06/30 12:48:53;;;;;;;9.50;6.35;;;29.20;66.20;;;;;;4958353;28;20050;-75
2022/06/30 12:51:28;;;;;;;8.40;5.55;;;29.50;66.90;;;;;;4989483;28;20226;-75
2022/06/30 12:54:05;;;;;;;11.85;5.32;;;29.60;71.00;;;;;;4970859;28;20030;-75
2022/06/30 12:56:32;;;;;;;6.40;5.53;;;29.60;66.50;;;;;;4976020;28;20081;-75